createdAt,value
2019-03-31T00:02:17.996Z,100800.91
2019-03-31T00:04:51.369Z,100800.20
2019-03-31T00:07:24.343Z,100798.61
2019-03-31T00:09:57.274Z,100801.80
2019-03-31T00:12:59.469Z,100798.86
2019-03-31T00:15:35.348Z,100805.75
2019-03-31T00:19:07.220Z,100796.06
2019-03-31T00:21:41.583Z,100799.44
2019-03-31T00:24:14.567Z,100799.14
2019-03-31T00:26:50.528Z,100798.41
2019-03-31T00:29:23.099Z,100800.31
2019-03-31T00:31:55.605Z,100794.39
2019-03-31T00:34:28.224Z,100797.18
2019-03-31T00:37:01.525Z,100798.21
2019-03-31T00:39:34.580Z,100794.42
2019-03-31T00:42:07.090Z,100801.07
2019-03-31T00:44:39.587Z,100796.38
2019-03-31T00:47:12.124Z,100801.34
2019-03-31T00:49:44.649Z,100801.47
2019-03-31T00:52:17.795Z,100801.62
2019-03-31T00:54:50.280Z,100804.38
2019-03-31T00:57:23.244Z,100808.02
2019-03-31T00:59:55.748Z,100806.42
2019-03-31T01:02:31.571Z,100806.90
2019-03-31T01:05:07.441Z,100801.34
2019-03-31T01:07:41.047Z,100803.13
2019-03-31T01:10:13.863Z,100802.72
2019-03-31T01:12:46.852Z,100804.00
2019-03-31T01:15:23.323Z,100802.56
2019-03-31T01:17:56.223Z,100802.95
2019-03-31T01:20:28.767Z,100800.88
2019-03-31T01:23:01.805Z,100801.41
2019-03-31T01:25:34.544Z,100802.81
2019-03-31T01:28:07.011Z,100801.06
2019-03-31T01:30:39.506Z,100813.13
2019-03-31T01:33:12.099Z,100809.16
2019-03-31T01:35:44.596Z,100805.14
2019-03-31T01:38:17.772Z,100807.41
2019-03-31T01:40:50.322Z,100810.13
2019-03-31T01:43:22.832Z,100804.95
2019-03-31T01:45:55.598Z,100808.88
2019-03-31T01:48:28.336Z,100804.44
2019-03-31T01:51:00.891Z,100803.10
2019-03-31T01:53:48.488Z,100808.75
2019-03-31T01:56:21.123Z,100802.98
2019-03-31T01:58:53.805Z,100802.50
2019-03-31T02:01:26.279Z,100805.98
2019-03-31T02:04:00.475Z,100799.66
2019-03-31T02:06:33.560Z,100806.45
2019-03-31T02:09:14.884Z,100802.35
2019-03-31T02:11:49.459Z,100805.69
2019-03-31T02:14:23.231Z,100803.84
2019-03-31T02:16:55.699Z,100801.94
2019-03-31T02:19:28.265Z,100797.83
2019-03-31T02:22:00.877Z,100801.14
2019-03-31T02:24:34.498Z,100793.44
2019-03-31T02:27:07.296Z,100796.19
2019-03-31T02:29:39.787Z,100796.33
2019-03-31T02:32:23.255Z,100797.21
2019-03-31T02:34:46.521Z,100792.82
2019-03-31T02:37:19.411Z,100794.16
2019-03-31T02:39:52.555Z,100802.98
2019-03-31T02:42:25.239Z,100801.37
2019-03-31T02:44:57.879Z,100806.28
2019-03-31T02:47:30.894Z,100804.13
2019-03-31T02:50:03.678Z,100801.50
2019-03-31T02:52:37.122Z,100794.45
2019-03-31T02:55:13.828Z,100799.07
2019-03-31T02:57:46.401Z,100800.85
2019-03-31T03:00:19.014Z,100802.67
2019-03-31T03:02:52.637Z,100807.11
2019-03-31T03:05:27.955Z,100807.16
2019-03-31T03:08:01.825Z,100802.80
2019-03-31T03:10:37.806Z,100803.19
2019-03-31T03:13:12.139Z,100801.12
2019-03-31T03:16:29.045Z,100806.51
2019-03-31T03:19:01.506Z,100806.64
2019-03-31T03:21:34.242Z,100804.72
2019-03-31T03:24:07.227Z,100808.28
2019-03-31T03:26:41.270Z,100807.84
2019-03-31T03:29:16.581Z,100803.75
2019-03-31T03:32:01.610Z,100802.87
2019-03-31T03:34:40.665Z,100802.97
2019-03-31T03:37:14.894Z,100806.64
2019-03-31T03:39:51.076Z,100812.49
2019-03-31T03:42:24.537Z,100805.20
2019-03-31T03:44:57.168Z,100802.98
2019-03-31T03:47:30.235Z,100801.31
2019-03-31T03:50:02.797Z,100804.92
2019-03-31T03:52:35.452Z,100800.63
2019-03-31T03:55:08.298Z,100799.77
2019-03-31T03:57:41.782Z,100800.23
2019-03-31T04:00:14.435Z,100798.56
2019-03-31T04:02:47.271Z,100799.44
2019-03-31T04:05:20.617Z,100798.05
2019-03-31T04:07:53.141Z,100801.34
2019-03-31T04:11:23.586Z,100795.65
2019-03-31T04:13:57.461Z,100791.77
2019-03-31T04:16:30.860Z,100787.98
2019-03-31T04:19:03.990Z,100794.11
2019-03-31T04:21:38.354Z,100794.16
2019-03-31T04:24:10.941Z,100792.52
2019-03-31T04:26:43.702Z,100791.38
2019-03-31T04:29:17.236Z,100791.09
2019-03-31T04:31:49.818Z,100791.27
2019-03-31T04:34:22.935Z,100789.27
2019-03-31T04:36:55.544Z,100800.31
2019-03-31T04:39:28.608Z,100795.70
2019-03-31T04:42:01.253Z,100800.66
2019-03-31T04:44:34.975Z,100803.87
2019-03-31T04:47:07.741Z,100801.34
2019-03-31T04:49:40.534Z,100796.95
2019-03-31T04:52:13.011Z,100799.08
2019-03-31T04:54:45.831Z,100792.56
2019-03-31T04:57:18.263Z,100800.41
2019-03-31T04:59:51.489Z,100798.61
2019-03-31T05:02:26.988Z,100800.34
2019-03-31T05:04:58.486Z,100802.05
2019-03-31T05:07:31.036Z,100804.24
2019-03-31T05:10:03.677Z,100799.09
2019-03-31T05:12:36.200Z,100799.98
2019-03-31T05:15:09.507Z,100805.69
2019-03-31T05:17:42.932Z,100801.81
2019-03-31T05:20:15.567Z,100801.88
2019-03-31T05:22:48.032Z,100805.34
2019-03-31T05:25:20.743Z,100802.31
2019-03-31T05:27:53.205Z,100810.14
2019-03-31T05:30:26.310Z,100811.02
2019-03-31T05:32:58.766Z,100819.66
2019-03-31T05:35:31.314Z,100810.85
2019-03-31T05:38:03.806Z,100816.39
2019-03-31T05:40:36.457Z,100808.98
2019-03-31T05:43:08.922Z,100815.89
2019-03-31T05:45:42.139Z,100819.84
2019-03-31T05:48:14.751Z,100823.84
2019-03-31T05:50:47.254Z,100823.06
2019-03-31T05:53:19.795Z,100832.64
2019-03-31T05:55:52.332Z,100839.20
2019-03-31T05:58:25.012Z,100832.28
2019-03-31T06:00:58.240Z,100834.44
2019-03-31T06:03:30.921Z,100835.22
2019-03-31T06:06:03.533Z,100840.30
2019-03-31T06:08:36.372Z,100844.11
2019-03-31T06:11:08.946Z,100837.15
2019-03-31T06:13:41.891Z,100836.20
2019-03-31T06:16:14.992Z,100835.27
2019-03-31T06:18:48.275Z,100831.27
2019-03-31T06:21:20.779Z,100834.66
2019-03-31T06:23:53.349Z,100833.77
2019-03-31T06:26:26.268Z,100843.25
2019-03-31T06:28:59.659Z,100847.08
2019-03-31T06:31:33.027Z,100850.45
2019-03-31T06:34:07.888Z,100848.17
2019-03-31T06:36:40.404Z,100853.63
2019-03-31T06:39:12.917Z,100859.45
2019-03-31T06:41:45.435Z,100863.59
2019-03-31T06:44:18.231Z,100856.36
2019-03-31T06:46:51.787Z,100851.23
2019-03-31T06:49:24.403Z,100844.77
2019-03-31T06:51:56.932Z,100839.64
2019-03-31T06:54:29.478Z,100837.52
2019-03-31T06:57:02.042Z,100839.76
2019-03-31T06:59:34.750Z,100844.56
2019-03-31T07:02:08.008Z,100850.70
2019-03-31T07:04:40.995Z,100848.22
2019-03-31T07:07:13.622Z,100849.70
2019-03-31T07:09:49.005Z,100848.98
2019-03-31T07:12:21.754Z,100842.96
2019-03-31T07:14:55.065Z,100849.67
2019-03-31T07:17:27.582Z,100845.05
2019-03-31T07:20:00.813Z,100843.06
2019-03-31T07:22:33.347Z,100841.01
2019-03-31T07:25:08.928Z,100844.70
2019-03-31T07:27:41.569Z,100844.84
2019-03-31T07:30:15.207Z,100844.09
2019-03-31T07:32:47.851Z,100841.53
2019-03-31T07:35:20.990Z,100845.11
2019-03-31T07:37:53.597Z,100842.20
2019-03-31T07:40:26.336Z,100845.45
2019-03-31T07:43:06.082Z,100840.37
2019-03-31T07:45:36.774Z,100838.27
2019-03-31T07:48:09.302Z,100838.34
2019-03-31T07:50:43.054Z,100839.30
2019-03-31T07:53:15.537Z,100839.41
2019-03-31T07:55:48.508Z,100839.08
2019-03-31T07:58:21.039Z,100839.21
2019-03-31T08:00:53.576Z,100839.38
2019-03-31T08:03:26.416Z,100836.92
2019-03-31T08:05:59.667Z,100844.55
2019-03-31T08:08:32.155Z,100842.45
2019-03-31T08:11:04.965Z,100843.39
2019-03-31T08:13:37.691Z,100842.55
2019-03-31T08:16:11.347Z,100836.95
2019-03-31T08:18:43.946Z,100845.26
2019-03-31T08:21:18.335Z,100840.92
2019-03-31T08:23:50.838Z,100845.77
2019-03-31T08:26:23.346Z,100847.19
2019-03-31T08:28:58.582Z,100839.39
2019-03-31T08:31:30.202Z,100841.64
2019-03-31T08:34:02.741Z,100840.44
2019-03-31T08:36:35.882Z,100837.94
2019-03-31T08:39:11.405Z,100839.38
2019-03-31T08:41:44.716Z,100842.08
2019-03-31T08:44:17.562Z,100834.66
2019-03-31T08:46:50.219Z,100842.98
2019-03-31T08:49:22.789Z,100838.78
2019-03-31T08:51:56.026Z,100843.26
2019-03-31T08:54:28.564Z,100839.00
2019-03-31T08:57:01.683Z,100834.19
2019-03-31T08:59:34.587Z,100832.47
2019-03-31T09:02:29.039Z,100833.78
2019-03-31T09:05:02.442Z,100822.05
2019-03-31T09:07:35.546Z,100827.61
2019-03-31T09:10:09.650Z,100823.23
2019-03-31T09:12:42.436Z,100822.69
2019-03-31T09:15:15.336Z,100824.38
2019-03-31T09:17:47.886Z,100823.09
2019-03-31T09:20:21.950Z,100828.33
2019-03-31T09:22:55.568Z,100826.60
2019-03-31T09:25:28.129Z,100823.98
2019-03-31T09:28:01.299Z,100822.22
2019-03-31T09:30:33.885Z,100817.78
2019-03-31T09:33:06.666Z,100823.80
2019-03-31T09:35:47.349Z,100812.77
2019-03-31T09:38:20.579Z,100815.81
2019-03-31T09:40:53.108Z,100813.50
2019-03-31T09:43:25.680Z,100808.07
2019-03-31T09:45:59.523Z,100813.20
2019-03-31T09:48:32.390Z,100807.83
2019-03-31T09:51:05.078Z,100806.81
2019-03-31T09:53:38.287Z,100800.97
2019-03-31T09:56:11.004Z,100805.15
2019-03-31T09:58:43.534Z,100797.04
2019-03-31T10:01:16.113Z,100799.97
2019-03-31T10:03:49.768Z,100799.38
2019-03-31T10:06:30.184Z,100793.04
2019-03-31T10:08:58.067Z,100793.84
2019-03-31T10:11:30.558Z,100786.35
2019-03-31T10:14:03.242Z,100780.06
2019-03-31T10:16:35.816Z,100781.25
2019-03-31T10:19:08.427Z,100772.03
2019-03-31T10:21:40.948Z,100776.43
2019-03-31T10:24:14.245Z,100767.40
2019-03-31T10:26:46.904Z,100765.53
2019-03-31T10:29:19.535Z,100763.77
2019-03-31T10:31:52.145Z,100765.48
2019-03-31T10:34:24.638Z,100766.25
2019-03-31T10:36:58.140Z,100764.40
2019-03-31T10:39:31.403Z,100761.73
2019-03-31T10:42:03.992Z,100763.94
2019-03-31T10:44:36.570Z,100754.98
2019-03-31T10:47:09.258Z,100750.90
2019-03-31T10:49:41.923Z,100752.16
2019-03-31T10:52:14.501Z,100743.53
2019-03-31T10:54:48.002Z,100742.17
2019-03-31T10:57:20.540Z,100744.36
2019-03-31T10:59:53.456Z,100743.21
2019-03-31T11:02:28.261Z,100736.71
2019-03-31T11:05:01.055Z,100736.14
2019-03-31T11:07:33.749Z,100736.02
2019-03-31T11:10:07.369Z,100734.70
2019-03-31T11:12:39.924Z,100738.30
2019-03-31T11:15:12.521Z,100741.38
2019-03-31T11:17:45.062Z,100735.66
2019-03-31T11:20:17.721Z,100739.63
2019-03-31T11:23:00.867Z,100735.97
2019-03-31T11:25:34.591Z,100735.56
2019-03-31T11:28:07.196Z,100728.52
2019-03-31T11:30:41.415Z,100728.97
2019-03-31T11:33:14.050Z,100731.69
2019-03-31T11:35:47.162Z,100727.77
2019-03-31T11:38:20.325Z,100728.39
2019-03-31T11:40:53.881Z,100718.52
2019-03-31T11:43:26.497Z,100715.55
2019-03-31T11:45:59.209Z,100719.31
2019-03-31T11:48:31.689Z,100713.42
2019-03-31T11:51:04.257Z,100714.18
2019-03-31T11:53:36.838Z,100714.08
2019-03-31T11:56:10.084Z,100709.52
2019-03-31T11:58:42.765Z,100698.19
2019-03-31T12:01:15.621Z,100698.72
2019-03-31T12:03:48.182Z,100700.80
2019-03-31T12:06:20.848Z,100692.49
2019-03-31T12:08:53.626Z,100694.83
2019-03-31T12:11:26.138Z,100694.87
2019-03-31T12:13:58.988Z,100688.75
2019-03-31T12:16:31.553Z,100689.05
2019-03-31T12:19:04.471Z,100687.08
2019-03-31T12:21:37.038Z,100682.62
2019-03-31T12:24:11.363Z,100683.62
2019-03-31T12:26:43.970Z,100675.80
2019-03-31T12:29:17.059Z,100668.81
2019-03-31T12:31:50.350Z,100666.29
2019-03-31T12:34:23.063Z,100668.65
2019-03-31T12:36:55.593Z,100661.44
2019-03-31T12:39:28.337Z,100661.81
2019-03-31T12:42:01.109Z,100662.22
2019-03-31T12:44:34.607Z,100648.94
2019-03-31T12:47:07.350Z,100644.97
2019-03-31T12:49:39.897Z,100652.73
2019-03-31T12:52:12.491Z,100642.75
2019-03-31T12:54:45.046Z,100634.53
2019-03-31T12:57:17.531Z,100641.47
2019-03-31T12:59:50.782Z,100632.50
2019-03-31T13:02:23.259Z,100631.22
2019-03-31T13:04:55.984Z,100631.71
2019-03-31T13:07:28.806Z,100631.34
2019-03-31T13:10:01.414Z,100625.43
2019-03-31T13:12:35.133Z,100627.02
2019-03-31T13:15:08.916Z,100622.03
2019-03-31T13:17:41.431Z,100617.17
2019-03-31T13:20:14.474Z,100616.84
2019-03-31T13:22:47.012Z,100626.03
2019-03-31T13:25:19.558Z,100612.59
2019-03-31T13:27:52.051Z,100610.89
2019-03-31T13:30:25.588Z,100619.27
2019-03-31T13:32:58.131Z,100617.45
2019-03-31T13:35:30.713Z,100610.80
2019-03-31T13:38:10.813Z,100615.14
2019-03-31T13:40:37.592Z,100605.80
2019-03-31T13:43:10.139Z,100590.16
2019-03-31T13:45:43.476Z,100595.38
2019-03-31T13:48:16.019Z,100598.89
2019-03-31T13:50:48.567Z,100592.95
2019-03-31T13:53:21.024Z,100599.15
2019-03-31T13:55:53.613Z,100589.04
2019-03-31T13:58:28.502Z,100599.23
2019-03-31T14:01:01.347Z,100594.27
2019-03-31T14:03:33.850Z,100589.20
2019-03-31T14:06:06.828Z,100589.79
2019-03-31T14:08:39.383Z,100582.64
2019-03-31T14:11:12.421Z,100583.50
2019-03-31T14:13:44.970Z,100583.87
2019-03-31T14:16:18.127Z,100573.09
2019-03-31T14:18:50.827Z,100576.97
2019-03-31T14:21:23.435Z,100576.72
2019-03-31T14:23:55.953Z,100576.02
2019-03-31T14:26:28.515Z,100571.16
2019-03-31T14:29:01.376Z,100577.83
2019-03-31T14:31:33.970Z,100568.49
2019-03-31T14:34:07.052Z,100578.05
2019-03-31T14:36:39.599Z,100566.05
2019-03-31T14:39:12.337Z,100565.45
2019-03-31T14:41:46.193Z,100562.64
2019-03-31T14:44:18.733Z,100564.34
2019-03-31T14:46:51.221Z,100554.16
2019-03-31T14:49:25.956Z,100556.34
2019-03-31T14:52:01.296Z,100548.23
2019-03-31T14:54:33.067Z,100549.79
2019-03-31T14:57:05.648Z,100551.75
2019-03-31T14:59:38.326Z,100547.48
2019-03-31T15:02:10.880Z,100549.19
2019-03-31T15:04:43.987Z,100549.56
2019-03-31T15:07:16.831Z,100541.45
2019-03-31T15:09:49.907Z,100547.37
2019-03-31T15:12:22.439Z,100539.84
2019-03-31T15:14:55.187Z,100539.59
2019-03-31T15:17:28.294Z,100540.11
2019-03-31T15:20:00.896Z,100543.59
2019-03-31T15:22:33.427Z,100541.08
2019-03-31T15:25:06.456Z,100545.55
2019-03-31T15:27:39.123Z,100535.11
2019-03-31T15:30:12.111Z,100540.11
2019-03-31T15:32:45.055Z,100540.71
2019-03-31T15:35:17.646Z,100538.16
2019-03-31T15:37:50.231Z,100540.45
2019-03-31T15:40:23.238Z,100535.37
2019-03-31T15:42:55.778Z,100535.49
2019-03-31T15:45:28.725Z,100532.60
2019-03-31T15:48:01.316Z,100538.90
2019-03-31T15:50:34.036Z,100531.50
2019-03-31T15:53:06.640Z,100537.45
2019-03-31T15:55:39.618Z,100524.72
2019-03-31T15:58:12.311Z,100531.02
2019-03-31T16:00:45.116Z,100535.64
2019-03-31T16:03:17.879Z,100525.20
2019-03-31T16:05:50.716Z,100532.13
2019-03-31T16:08:22.459Z,100523.53
2019-03-31T16:10:54.652Z,100525.83
2019-03-31T16:13:26.490Z,100531.27
2019-03-31T16:15:58.361Z,100531.86
2019-03-31T16:18:30.065Z,100532.48
2019-03-31T16:21:01.911Z,100535.27
2019-03-31T16:23:33.833Z,100536.38
2019-03-31T16:26:06.465Z,100527.64
2019-03-31T16:28:38.197Z,100533.56
2019-03-31T16:31:09.928Z,100539.97
2019-03-31T16:33:41.703Z,100530.38
2019-03-31T16:36:13.645Z,100529.30
2019-03-31T16:38:45.741Z,100529.18
2019-03-31T16:41:17.640Z,100530.73
2019-03-31T16:43:49.863Z,100529.06
2019-03-31T16:46:21.588Z,100533.05
2019-03-31T16:48:53.436Z,100535.94
2019-03-31T16:51:25.344Z,100531.70
2019-03-31T16:53:57.083Z,100530.59
2019-03-31T16:56:28.814Z,100533.03
2019-03-31T16:59:03.666Z,100525.73
2019-03-31T17:01:35.454Z,100529.13
2019-03-31T17:06:39.687Z,100532.75
2019-03-31T17:09:11.544Z,100536.13
2019-03-31T17:11:43.583Z,100536.59
2019-03-31T17:14:15.942Z,100539.61
2019-03-31T17:16:47.848Z,100540.06
2019-03-31T17:19:19.655Z,100534.72
2019-03-31T17:21:51.454Z,100538.20
2019-03-31T17:24:23.869Z,100546.14
2019-03-31T17:26:55.613Z,100542.97
2019-03-31T17:29:28.441Z,100539.33
2019-03-31T17:32:00.166Z,100545.47
2019-03-31T17:34:31.872Z,100546.67
2019-03-31T17:37:03.691Z,100540.57
2019-03-31T17:39:35.433Z,100543.95
2019-03-31T17:42:07.460Z,100542.69
2019-03-31T17:44:39.998Z,100546.54
2019-03-31T17:47:11.895Z,100549.64
2019-03-31T17:49:43.688Z,100550.94
2019-03-31T17:52:15.452Z,100555.02
2019-03-31T17:54:47.354Z,100551.94
2019-03-31T17:57:19.171Z,100553.23
2019-03-31T17:59:51.560Z,100557.62
2019-03-31T18:02:23.674Z,100558.80
2019-03-31T18:04:55.717Z,100558.48
2019-03-31T18:07:27.828Z,100567.26
2019-03-31T18:09:59.585Z,100566.39
2019-03-31T18:12:31.268Z,100569.95
2019-03-31T18:15:04.062Z,100565.05
2019-03-31T18:17:35.819Z,100572.97
2019-03-31T18:20:09.453Z,100570.73
2019-03-31T18:22:41.761Z,100579.12
2019-03-31T18:25:13.771Z,100578.33
2019-03-31T18:27:46.140Z,100586.08
2019-03-31T18:30:18.552Z,100583.27
2019-03-31T18:32:50.595Z,100589.20
2019-03-31T18:35:22.508Z,100591.59
2019-03-31T18:37:54.237Z,100592.30
2019-03-31T18:40:34.954Z,100597.75
2019-03-31T18:42:59.328Z,100599.22
2019-03-31T18:45:31.083Z,100608.98
2019-03-31T18:48:03.486Z,100605.22
2019-03-31T18:50:35.403Z,100617.28
2019-03-31T18:53:11.293Z,100614.05
2019-03-31T18:55:50.283Z,100625.53
2019-03-31T18:58:40.884Z,100628.84
2019-03-31T19:01:46.413Z,100638.20
2019-03-31T19:04:36.958Z,100635.09
2019-03-31T19:07:27.201Z,100643.69
2019-03-31T19:10:07.678Z,100647.09
2019-03-31T19:12:56.660Z,100647.19
2019-03-31T19:15:45.914Z,100652.38
2019-03-31T19:18:35.645Z,100654.92
2019-03-31T19:21:22.747Z,100655.47
2019-03-31T19:24:06.492Z,100653.58
2019-03-31T19:26:54.828Z,100659.34
2019-03-31T19:29:39.051Z,100661.49
2019-03-31T19:32:18.850Z,100664.92
2019-03-31T19:35:09.514Z,100667.19
2019-03-31T19:37:58.761Z,100670.10
2019-03-31T19:40:43.126Z,100675.94
2019-03-31T19:43:30.484Z,100682.83
2019-03-31T19:46:19.891Z,100680.91
2019-03-31T19:49:26.112Z,100683.05
2019-03-31T19:52:16.833Z,100689.55
2019-03-31T19:55:00.381Z,100694.04
2019-03-31T19:57:49.519Z,100699.59
2019-03-31T20:00:46.924Z,100697.75
2019-03-31T20:03:44.000Z,100706.33
2019-03-31T20:06:26.525Z,100710.09
2019-03-31T20:09:19.881Z,100721.54
2019-03-31T20:12:10.519Z,100719.62
2019-03-31T20:14:50.218Z,100726.55
2019-03-31T20:17:40.795Z,100733.17
2019-03-31T20:20:37.485Z,100739.24
2019-03-31T20:23:34.071Z,100744.95
2019-03-31T20:26:21.768Z,100745.27
2019-03-31T20:29:18.737Z,100750.41
2019-03-31T20:31:58.691Z,100752.44
2019-03-31T20:34:38.892Z,100754.00
2019-03-31T20:37:24.665Z,100755.00
2019-03-31T20:40:13.895Z,100758.81
2019-03-31T20:43:08.215Z,100762.48
2019-03-31T20:45:39.940Z,100766.05
2019-03-31T20:48:12.135Z,100761.22
2019-03-31T20:50:44.095Z,100773.50
2019-03-31T20:53:16.067Z,100770.47
2019-03-31T20:55:47.992Z,100767.89
2019-03-31T20:58:19.686Z,100772.78
2019-03-31T21:00:51.447Z,100777.70
2019-03-31T21:03:23.894Z,100780.41
2019-03-31T21:05:56.697Z,100778.77
2019-03-31T21:08:28.939Z,100784.15
2019-03-31T21:11:00.901Z,100785.14
2019-03-31T21:13:32.578Z,100783.06
2019-03-31T21:16:04.331Z,100786.23
2019-03-31T21:18:36.723Z,100794.69
2019-03-31T21:21:08.525Z,100796.11
2019-03-31T21:23:40.329Z,100797.50
2019-03-31T21:26:12.010Z,100794.52
2019-03-31T21:28:43.975Z,100796.02
2019-03-31T21:31:15.919Z,100799.58
2019-03-31T21:33:48.359Z,100795.78
2019-03-31T21:36:20.113Z,100797.62
2019-03-31T21:38:51.896Z,100797.33
2019-03-31T21:41:23.759Z,100796.94
2019-03-31T21:43:55.673Z,100795.38
2019-03-31T21:46:27.775Z,100810.36
2019-03-31T21:49:00.348Z,100810.95
2019-03-31T21:51:32.069Z,100806.70
2019-03-31T21:54:03.859Z,100811.18
2019-03-31T21:56:35.499Z,100813.55
2019-03-31T21:59:07.182Z,100806.72
2019-03-31T22:01:38.976Z,100817.41
2019-03-31T22:04:12.943Z,100813.20
2019-03-31T22:06:45.410Z,100823.13
2019-03-31T22:09:17.197Z,100825.06
2019-03-31T22:11:48.938Z,100820.41
2019-03-31T22:14:20.723Z,100829.30
2019-03-31T22:16:52.407Z,100829.13
2019-03-31T22:19:26.316Z,100834.62
2019-03-31T22:21:58.005Z,100827.32
2019-03-31T22:24:30.166Z,100824.41
2019-03-31T22:27:01.843Z,100823.30
2019-03-31T22:29:33.556Z,100823.06
2019-03-31T22:32:05.239Z,100830.73
2019-03-31T22:34:37.527Z,100824.81
2019-03-31T22:37:09.323Z,100817.97
2019-03-31T22:39:41.149Z,100824.28
2019-03-31T22:42:12.807Z,100823.17
2019-03-31T22:44:44.507Z,100822.92
2019-03-31T22:47:16.155Z,100816.48
2019-03-31T22:49:48.477Z,100820.70
2019-03-31T22:52:20.286Z,100830.05
2019-03-31T22:54:51.968Z,100823.61
2019-03-31T22:57:23.651Z,100831.63
2019-03-31T22:59:55.366Z,100830.47
2019-03-31T23:02:27.922Z,100829.75
2019-03-31T23:05:00.402Z,100837.28
2019-03-31T23:07:32.165Z,100826.03
2019-03-31T23:10:03.918Z,100831.91
2019-03-31T23:12:35.586Z,100829.38
2019-03-31T23:15:07.288Z,100823.80
2019-03-31T23:17:38.904Z,100828.67
2019-03-31T23:20:11.346Z,100827.00
2019-03-31T23:22:42.982Z,100824.52
2019-03-31T23:25:14.980Z,100814.04
2019-03-31T23:27:46.590Z,100816.87
2019-03-31T23:30:18.722Z,100822.59
2019-03-31T23:32:50.352Z,100821.02
2019-03-31T23:35:22.584Z,100825.62
2019-03-31T23:37:54.230Z,100827.59
2019-03-31T23:40:26.281Z,100825.67
2019-03-31T23:42:57.890Z,100832.10
2019-03-31T23:45:32.275Z,100828.80
2019-03-31T23:48:04.059Z,100826.77
2019-03-31T23:50:35.735Z,100825.19
2019-03-31T23:53:07.824Z,100823.16
2019-03-31T23:55:39.596Z,100830.84
2019-03-31T23:58:11.280Z,100828.84
